This is the latest recevied weather packets stored in our database for station/object KQ7A. If no packets are shown the sender has not sent any weather packets the latest 10 day(s).
| Time | Temp. | Humidity | Pressure | Rain* | Wind** | Luminosity | Snow |
|---|---|---|---|---|---|---|---|
| 1778053319 | 8.33° C | 83% | 1017.8 hPa | 0 mm | - | 0 W/m² | - |
| 1778053017 | 8.33° C | 85% | 1017.8 hPa | 0 mm | - | 0 W/m² | - |
| 1778052714 | 8.33° C | 84% | 1017.3 hPa | 0 mm | - | 0 W/m² | - |
| 1778052411 | 7.78° C | 87% | 1017.5 hPa | 0 mm | - | 0 W/m² | - |
| 1778052109 | 8.33° C | 84% | 1017.4 hPa | 0 mm | - | 0 W/m² | - |
| 1778051806 | 8.89° C | 83% | 1017 hPa | 0 mm | - | 0 W/m² | - |
| 1778051504 | 8.89° C | 83% | 1017.1 hPa | 0 mm | - | 0 W/m² | - |
| 1778051200 | 9.44° C | 80% | 1017.1 hPa | 0 mm | - | 0 W/m² | - |
| 1778050897 | 9.44° C | 79% | 1017.3 hPa | 0 mm | - | 0 W/m² | - |
| 1778050596 | 10° C | 76% | 1017.1 hPa | 0 mm | - | 0 W/m² | - |
| 1778050292 | 10° C | 78% | 1017.3 hPa | 0 mm | - | 0 W/m² | - |
| 1778049989 | 10° C | 76% | 1017.6 hPa | 0 mm | - | 0 W/m² | - |
| 1778049684 | 10.56° C | 74% | 1017.6 hPa | 0 mm | - | 0 W/m² | - |
| 1778049383 | 10.56° C | 73% | 1017.4 hPa | 0 mm | - | 0 W/m² | - |
| 1778049079 | 10° C | 75% | 1017.4 hPa | 0 mm | - | 0 W/m² | - |
| 1778048778 | 10° C | 76% | 1017.5 hPa | 0 mm | - | 0 W/m² | - |
| 1778048475 | 8.89° C | 84% | 1017.5 hPa | 0 mm | - | 0 W/m² | - |
| 1778048170 | 9.44° C | 82% | 1017.5 hPa | 0 mm | - | 0 W/m² | - |
| 1778047869 | 8.89° C | 82% | 1017.4 hPa | 0 mm | - | 0 W/m² | - |
| 1778047567 | 8.89° C | 83% | 1017.6 hPa | 0 mm | - | 0 W/m² | - |
| 1778047263 | 8.89° C | 83% | 1017.5 hPa | 0 mm | - | 0 W/m² | - |
| 1778046961 | 8.89° C | 82% | 1017.1 hPa | 0 mm | - | 0 W/m² | - |
| 1778046657 | 8.89° C | 82% | 1016.7 hPa | 0 mm | - | 0 W/m² | - |
| 1778046354 | 8.89° C | 82% | 1016.3 hPa | 0 mm | - | 0 W/m² | - |
| 1778046050 | 8.89° C | 82% | 1016.3 hPa | 0 mm | - | 0 W/m² | - |
* Rain latest hour (hover to see other rain measurements)
** Current wind speed in m/s (hover to see current wind gust speed)